createdAt,value
2016-07-03T00:00:37.060Z,0
2016-07-03T00:01:37.113Z,0
2016-07-03T00:02:37.129Z,0
2016-07-03T00:03:37.125Z,0
2016-07-03T00:04:37.121Z,0
2016-07-03T00:05:37.136Z,0
2016-07-03T00:06:37.139Z,0
2016-07-03T00:07:37.146Z,0
2016-07-03T00:08:37.132Z,0
2016-07-03T00:09:37.174Z,0
2016-07-03T00:10:37.178Z,0
2016-07-03T00:11:37.226Z,0
2016-07-03T00:12:37.205Z,0
2016-07-03T00:13:37.188Z,0
2016-07-03T00:14:37.238Z,0
2016-07-03T00:15:37.212Z,0
2016-07-03T00:16:37.227Z,0
2016-07-03T00:17:37.236Z,0
2016-07-03T00:18:37.264Z,0
2016-07-03T00:19:37.229Z,0
2016-07-03T00:20:37.241Z,0
2016-07-03T00:21:37.332Z,0
2016-07-03T00:22:37.292Z,0
2016-07-03T00:23:37.286Z,0
2016-07-03T00:24:37.317Z,0
2016-07-03T00:25:37.286Z,0
2016-07-03T00:26:37.297Z,0
2016-07-03T00:27:37.296Z,0
2016-07-03T00:28:37.323Z,0
2016-07-03T00:29:37.352Z,0
2016-07-03T00:30:37.337Z,0
2016-07-03T00:31:37.365Z,0
2016-07-03T00:32:37.372Z,0
2016-07-03T00:33:37.387Z,0
2016-07-03T00:34:37.382Z,0
2016-07-03T00:35:37.396Z,0
2016-07-03T00:36:37.391Z,0
2016-07-03T00:37:37.417Z,0
2016-07-03T00:38:37.434Z,0
2016-07-03T00:39:37.449Z,0
2016-07-03T00:40:37.436Z,0
2016-07-03T00:41:37.447Z,0
2016-07-03T00:42:37.476Z,0
2016-07-03T00:43:37.467Z,0
2016-07-03T00:44:37.505Z,0
2016-07-03T00:45:37.475Z,0
2016-07-03T00:46:37.504Z,0
2016-07-03T00:47:37.522Z,0
2016-07-03T00:48:37.518Z,0
2016-07-03T00:49:37.541Z,0
2016-07-03T00:50:37.550Z,0
2016-07-03T00:51:37.560Z,0
2016-07-03T00:52:37.561Z,0
2016-07-03T00:53:37.535Z,0
2016-07-03T00:54:37.542Z,0
2016-07-03T00:55:37.615Z,0
2016-07-03T00:56:37.562Z,0
2016-07-03T00:57:37.571Z,0
2016-07-03T00:58:37.598Z,0
2016-07-03T00:59:37.620Z,0
2016-07-03T01:00:37.604Z,0
2016-07-03T01:01:37.610Z,0
2016-07-03T01:02:37.637Z,0
2016-07-03T01:03:37.643Z,0
2016-07-03T01:04:37.633Z,0
2016-07-03T01:05:37.658Z,0
2016-07-03T01:06:37.681Z,0
2016-07-03T01:07:37.677Z,0
2016-07-03T01:08:37.723Z,0
2016-07-03T01:09:37.696Z,0
2016-07-03T01:10:37.680Z,0
2016-07-03T01:11:37.727Z,0
2016-07-03T01:12:37.738Z,0
2016-07-03T01:13:37.721Z,0
2016-07-03T01:14:37.703Z,0
2016-07-03T01:15:37.727Z,0
2016-07-03T01:16:37.763Z,0
2016-07-03T01:17:37.778Z,0
2016-07-03T01:18:37.792Z,0
2016-07-03T01:19:37.758Z,0
2016-07-03T01:20:37.806Z,0
2016-07-03T01:21:37.819Z,0
2016-07-03T01:22:37.825Z,0
2016-07-03T01:23:37.835Z,0
2016-07-03T01:24:37.849Z,0
2016-07-03T01:25:37.829Z,0
2016-07-03T01:26:37.839Z,0
2016-07-03T01:27:37.855Z,0
2016-07-03T01:28:37.828Z,0
2016-07-03T01:29:37.892Z,0
2016-07-03T01:30:37.875Z,0
2016-07-03T01:31:37.875Z,0
2016-07-03T01:32:37.884Z,0
2016-07-03T01:33:37.903Z,0
2016-07-03T01:34:37.920Z,0
2016-07-03T01:35:37.901Z,0
2016-07-03T01:36:37.922Z,0
2016-07-03T01:37:37.947Z,0
2016-07-03T01:38:37.955Z,0
2016-07-03T01:39:37.938Z,0
2016-07-03T01:40:37.976Z,0
2016-07-03T01:41:37.963Z,0
2016-07-03T01:42:38.004Z,0
2016-07-03T01:43:38.011Z,0
2016-07-03T01:44:37.985Z,0
2016-07-03T01:45:38.001Z,0
2016-07-03T01:46:38.026Z,0
2016-07-03T01:47:38.034Z,0
2016-07-03T01:48:38.039Z,0
2016-07-03T01:49:38.040Z,0
2016-07-03T01:50:38.069Z,0
2016-07-03T01:51:38.035Z,0
2016-07-03T01:52:38.658Z,0
2016-07-03T01:53:38.093Z,0
2016-07-03T01:54:38.087Z,0
2016-07-03T01:55:38.088Z,0
2016-07-03T01:56:38.071Z,0
2016-07-03T01:57:38.115Z,0
2016-07-03T01:58:38.119Z,0
2016-07-03T01:59:38.106Z,0
2016-07-03T02:00:38.155Z,0
2016-07-03T02:01:38.146Z,0
2016-07-03T02:02:38.204Z,0
2016-07-03T02:03:38.179Z,0
2016-07-03T02:04:38.203Z,0
2016-07-03T02:05:38.204Z,0
2016-07-03T02:06:38.218Z,0
2016-07-03T02:07:38.227Z,0
2016-07-03T02:08:38.803Z,0
2016-07-03T02:09:38.241Z,0
2016-07-03T02:10:38.217Z,0
2016-07-03T02:11:38.232Z,0
2016-07-03T02:12:38.257Z,0
2016-07-03T02:13:38.257Z,0
2016-07-03T02:14:38.283Z,0
2016-07-03T02:15:38.267Z,0
2016-07-03T02:16:38.278Z,0
2016-07-03T02:17:38.313Z,0
2016-07-03T02:18:38.882Z,0
2016-07-03T02:19:38.309Z,0
2016-07-03T02:20:38.300Z,0
2016-07-03T02:21:38.337Z,0
2016-07-03T02:22:38.403Z,0
2016-07-03T02:23:38.309Z,0
2016-07-03T02:24:38.944Z,0
2016-07-03T02:25:38.343Z,0
2016-07-03T02:26:38.403Z,0
2016-07-03T02:27:38.384Z,0
2016-07-03T02:28:38.415Z,0
2016-07-03T02:29:38.404Z,0
2016-07-03T02:30:38.416Z,0
2016-07-03T02:31:38.416Z,0
2016-07-03T02:32:38.431Z,0
2016-07-03T02:33:38.455Z,0
2016-07-03T02:34:38.445Z,0
2016-07-03T02:35:38.496Z,0
2016-07-03T02:36:38.459Z,0
2016-07-03T02:37:38.495Z,0
2016-07-03T02:38:38.479Z,0
2016-07-03T02:39:38.475Z,0
2016-07-03T02:40:38.538Z,0
2016-07-03T02:41:38.502Z,0
2016-07-03T02:42:38.508Z,0
2016-07-03T02:43:38.532Z,0
2016-07-03T02:44:38.538Z,0
2016-07-03T02:45:38.525Z,0
2016-07-03T02:46:38.574Z,0
2016-07-03T02:47:38.578Z,0
2016-07-03T02:48:38.564Z,0
2016-07-03T02:49:38.564Z,0
2016-07-03T02:50:38.596Z,0
2016-07-03T02:51:38.612Z,0
2016-07-03T02:52:38.622Z,0
2016-07-03T02:53:38.651Z,0
2016-07-03T02:54:38.617Z,0
2016-07-03T02:55:38.653Z,0
2016-07-03T02:56:38.630Z,0
2016-07-03T02:57:38.616Z,0
2016-07-03T02:58:38.635Z,0
2016-07-03T02:59:38.669Z,0
2016-07-03T03:00:38.679Z,0
2016-07-03T03:01:38.702Z,0
2016-07-03T03:02:38.714Z,0
2016-07-03T03:03:38.695Z,0
2016-07-03T03:04:38.707Z,0
2016-07-03T03:05:38.724Z,0
2016-07-03T03:06:38.714Z,0
2016-07-03T03:07:38.723Z,0
2016-07-03T03:08:38.751Z,0
2016-07-03T03:09:38.749Z,0
2016-07-03T03:10:38.755Z,0
2016-07-03T03:11:38.752Z,0
2016-07-03T03:12:38.814Z,0
2016-07-03T03:13:38.779Z,0
2016-07-03T03:14:38.796Z,0
2016-07-03T03:15:38.824Z,0
2016-07-03T03:16:38.808Z,0
2016-07-03T03:17:38.806Z,0
2016-07-03T03:18:38.816Z,0
2016-07-03T03:19:38.839Z,0
2016-07-03T03:20:38.812Z,0
2016-07-03T03:21:38.832Z,0
2016-07-03T03:22:38.919Z,0
2016-07-03T03:23:38.857Z,0
2016-07-03T03:24:38.903Z,0
2016-07-03T03:25:38.889Z,0
2016-07-03T03:26:38.887Z,0
2016-07-03T03:27:38.886Z,0
2016-07-03T03:28:38.945Z,0
2016-07-03T03:29:38.935Z,0
2016-07-03T03:30:39.542Z,0
2016-07-03T03:31:38.936Z,0
2016-07-03T03:32:38.957Z,0
2016-07-03T03:33:38.955Z,0
2016-07-03T03:34:38.961Z,0
2016-07-03T03:35:38.955Z,0
2016-07-03T03:36:38.987Z,0
2016-07-03T03:37:38.953Z,0
2016-07-03T03:38:38.968Z,0
2016-07-03T03:39:38.994Z,0
2016-07-03T03:40:38.971Z,0
2016-07-03T03:41:39.030Z,0
2016-07-03T03:42:39.007Z,0
2016-07-03T03:43:39.028Z,0
2016-07-03T03:44:39.003Z,0
2016-07-03T03:45:39.052Z,0
2016-07-03T03:46:39.675Z,0
2016-07-03T03:47:39.088Z,0
2016-07-03T03:48:39.107Z,0
2016-07-03T03:49:39.115Z,0
2016-07-03T03:50:39.102Z,0
2016-07-03T03:51:39.103Z,0
2016-07-03T03:52:39.124Z,0
2016-07-03T03:53:39.106Z,0
2016-07-03T03:54:39.171Z,0
2016-07-03T03:55:39.142Z,0
2016-07-03T03:56:39.171Z,0
2016-07-03T03:57:39.156Z,0
2016-07-03T03:58:39.179Z,5
2016-07-03T03:59:39.176Z,5
2016-07-03T04:00:39.213Z,5
2016-07-03T04:01:39.202Z,5
2016-07-03T04:02:39.185Z,5
2016-07-03T04:03:39.211Z,5
2016-07-03T04:04:39.210Z,5
2016-07-03T04:05:39.255Z,5
2016-07-03T04:06:39.242Z,5
2016-07-03T04:07:39.249Z,5
2016-07-03T04:08:39.239Z,5
2016-07-03T04:09:39.261Z,5
2016-07-03T04:10:39.278Z,5
2016-07-03T04:11:39.292Z,5
2016-07-03T04:12:39.286Z,10
2016-07-03T04:13:39.306Z,10
2016-07-03T04:14:39.309Z,10
2016-07-03T04:15:39.320Z,10
2016-07-03T04:16:39.332Z,10
2016-07-03T04:17:39.324Z,10
2016-07-03T04:18:39.335Z,10
2016-07-03T04:19:39.356Z,10
2016-07-03T04:20:39.953Z,10
2016-07-03T04:21:39.355Z,10
2016-07-03T04:22:39.403Z,10
2016-07-03T04:23:39.378Z,10
2016-07-03T04:24:39.389Z,10
2016-07-03T04:25:39.412Z,10
2016-07-03T04:26:39.408Z,15
2016-07-03T04:27:39.459Z,15
2016-07-03T04:28:39.437Z,15
2016-07-03T04:29:39.463Z,15
2016-07-03T04:30:39.417Z,15
2016-07-03T04:31:40.072Z,15
2016-07-03T04:32:39.552Z,15
2016-07-03T04:33:39.462Z,15
2016-07-03T04:34:39.515Z,15
2016-07-03T04:35:39.468Z,15
2016-07-03T04:36:39.525Z,15
2016-07-03T04:37:39.502Z,15
2016-07-03T04:38:39.508Z,15
2016-07-03T04:39:39.532Z,15
2016-07-03T04:40:39.544Z,15
2016-07-03T04:41:39.592Z,15
2016-07-03T04:42:39.567Z,15
2016-07-03T04:43:39.568Z,15
2016-07-03T04:44:39.600Z,15
2016-07-03T04:45:39.626Z,15
2016-07-03T04:46:39.581Z,15
2016-07-03T04:47:39.586Z,15
2016-07-03T04:48:39.600Z,15
2016-07-03T04:49:39.615Z,15
2016-07-03T04:50:39.643Z,15
2016-07-03T04:51:39.669Z,15
2016-07-03T04:52:39.639Z,15
2016-07-03T04:53:39.676Z,15
2016-07-03T04:54:39.655Z,10
2016-07-03T04:55:39.670Z,15
2016-07-03T04:56:39.668Z,10
2016-07-03T04:57:39.690Z,10
2016-07-03T04:58:39.695Z,15
2016-07-03T04:59:39.745Z,15
2016-07-03T05:00:39.718Z,10
2016-07-03T05:01:39.708Z,10
2016-07-03T05:02:39.715Z,10
2016-07-03T05:03:39.758Z,10
2016-07-03T05:04:39.731Z,10
2016-07-03T05:05:39.740Z,10
2016-07-03T05:06:39.761Z,10
2016-07-03T05:07:39.763Z,10
2016-07-03T05:08:39.790Z,10
2016-07-03T05:09:39.776Z,10
2016-07-03T05:10:39.783Z,15
2016-07-03T05:11:39.814Z,15
2016-07-03T05:12:39.784Z,15
2016-07-03T05:13:39.811Z,10
2016-07-03T05:14:39.823Z,10
2016-07-03T05:15:39.836Z,10
2016-07-03T05:16:39.841Z,10
2016-07-03T05:17:39.855Z,10
2016-07-03T05:18:39.859Z,10
2016-07-03T05:19:39.876Z,10
2016-07-03T05:20:39.893Z,10
2016-07-03T05:21:39.884Z,10
2016-07-03T05:22:40.296Z,10
2016-07-03T05:23:39.935Z,10
2016-07-03T05:24:39.931Z,10
2016-07-03T05:25:39.962Z,10
2016-07-03T05:26:39.959Z,10
2016-07-03T05:27:39.934Z,10
2016-07-03T05:28:39.971Z,15
2016-07-03T05:29:39.990Z,10
2016-07-03T05:30:39.976Z,10
2016-07-03T05:31:39.979Z,10
2016-07-03T05:32:39.971Z,10
2016-07-03T05:33:40.049Z,10
2016-07-03T05:34:40.019Z,15
2016-07-03T05:35:40.011Z,15
2016-07-03T05:36:40.021Z,15
2016-07-03T05:37:40.044Z,15
2016-07-03T05:38:40.053Z,10
2016-07-03T05:39:40.080Z,10
2016-07-03T05:40:40.064Z,10
2016-07-03T05:41:40.108Z,15
2016-07-03T05:42:40.084Z,15
2016-07-03T05:43:40.069Z,15
2016-07-03T05:44:40.102Z,15
2016-07-03T05:45:40.126Z,15
2016-07-03T05:46:40.130Z,10
2016-07-03T05:47:40.121Z,10
2016-07-03T05:48:40.150Z,10
2016-07-03T05:49:40.146Z,15
2016-07-03T05:50:40.149Z,15
2016-07-03T05:51:40.176Z,15
2016-07-03T05:52:40.192Z,15
2016-07-03T05:53:40.173Z,15
2016-07-03T05:54:40.201Z,15
2016-07-03T05:55:40.218Z,15
2016-07-03T05:56:40.223Z,15
2016-07-03T05:57:40.211Z,15
2016-07-03T05:58:40.212Z,15
2016-07-03T05:59:40.239Z,15
2016-07-03T06:00:40.243Z,15
2016-07-03T06:01:40.250Z,15
2016-07-03T06:02:40.298Z,15
2016-07-03T06:03:40.280Z,15
2016-07-03T06:04:40.298Z,15
2016-07-03T06:05:40.334Z,15
2016-07-03T06:06:40.306Z,15
2016-07-03T06:07:40.311Z,15
2016-07-03T06:08:40.302Z,15
2016-07-03T06:09:40.333Z,15
2016-07-03T06:10:40.351Z,15
2016-07-03T06:11:40.368Z,15
2016-07-03T06:12:40.336Z,15
2016-07-03T06:13:40.371Z,15
2016-07-03T06:14:40.404Z,15
2016-07-03T06:15:40.386Z,15
2016-07-03T06:16:40.359Z,15
2016-07-03T06:17:40.412Z,15
2016-07-03T06:18:40.416Z,15
2016-07-03T06:19:40.419Z,15
2016-07-03T06:20:40.418Z,15
2016-07-03T06:21:40.419Z,15
2016-07-03T06:22:40.654Z,15
2016-07-03T06:23:40.462Z,15
2016-07-03T06:24:40.465Z,15
2016-07-03T06:25:40.463Z,15
2016-07-03T06:26:41.070Z,15
2016-07-03T06:27:40.490Z,15
2016-07-03T06:28:40.493Z,15
2016-07-03T06:29:40.528Z,15
2016-07-03T06:30:40.524Z,15
2016-07-03T06:31:40.505Z,15
2016-07-03T06:32:40.508Z,15
2016-07-03T06:33:40.553Z,15
2016-07-03T06:34:40.543Z,15
2016-07-03T06:35:40.555Z,15
2016-07-03T06:36:40.574Z,15
2016-07-03T06:37:40.607Z,15
2016-07-03T06:38:40.571Z,15
2016-07-03T06:39:40.604Z,15
2016-07-03T06:40:40.625Z,15
2016-07-03T06:41:40.590Z,15
2016-07-03T06:42:40.627Z,15
2016-07-03T06:43:40.620Z,15
2016-07-03T06:44:40.632Z,15
2016-07-03T06:45:40.634Z,15
2016-07-03T06:46:40.680Z,15
2016-07-03T06:47:40.659Z,15
2016-07-03T06:48:40.634Z,15
2016-07-03T06:49:40.669Z,20
2016-07-03T06:50:40.705Z,20
2016-07-03T06:51:40.698Z,20
2016-07-03T06:52:40.701Z,20
2016-07-03T06:53:40.734Z,20
2016-07-03T06:54:40.746Z,20
2016-07-03T06:55:40.737Z,20
2016-07-03T06:56:40.751Z,20
2016-07-03T06:57:41.352Z,20
2016-07-03T06:58:40.769Z,20
2016-07-03T06:59:40.772Z,20
2016-07-03T07:00:40.777Z,20
2016-07-03T07:01:40.806Z,20
2016-07-03T07:02:40.781Z,15
2016-07-03T07:03:40.819Z,15
2016-07-03T07:04:40.849Z,20
2016-07-03T07:05:40.822Z,15
2016-07-03T07:06:40.820Z,20
2016-07-03T07:07:40.843Z,20
2016-07-03T07:08:40.875Z,25
2016-07-03T07:09:40.869Z,25
2016-07-03T07:10:40.837Z,25
2016-07-03T07:11:40.872Z,20
2016-07-03T07:12:40.868Z,20
2016-07-03T07:13:40.880Z,20
2016-07-03T07:14:40.912Z,25
2016-07-03T07:15:40.926Z,30
2016-07-03T07:16:40.924Z,25
2016-07-03T07:17:40.961Z,20
2016-07-03T07:18:40.924Z,25
2016-07-03T07:19:40.957Z,25
2016-07-03T07:20:40.981Z,25
2016-07-03T07:21:40.950Z,25
2016-07-03T07:22:40.955Z,25
2016-07-03T07:23:41.011Z,25
2016-07-03T07:24:40.991Z,30
2016-07-03T07:25:41.019Z,30
2016-07-03T07:26:41.002Z,25
2016-07-03T07:27:41.647Z,20
2016-07-03T07:28:41.600Z,25
2016-07-03T07:29:41.006Z,25
2016-07-03T07:30:41.640Z,25
2016-07-03T07:31:41.048Z,25
2016-07-03T07:32:41.063Z,25
2016-07-03T07:33:41.052Z,25
2016-07-03T07:34:41.089Z,25
2016-07-03T07:35:41.114Z,25
2016-07-03T07:36:41.067Z,30
2016-07-03T07:37:41.117Z,30
2016-07-03T07:38:41.084Z,30
2016-07-03T07:39:41.105Z,30
2016-07-03T07:40:41.130Z,25
2016-07-03T07:41:41.726Z,30
2016-07-03T07:42:41.162Z,30
2016-07-03T07:43:41.200Z,30
2016-07-03T07:44:41.151Z,30
2016-07-03T07:45:41.216Z,35
2016-07-03T07:46:41.183Z,30
2016-07-03T07:47:41.233Z,30
2016-07-03T07:48:41.230Z,30
2016-07-03T07:49:41.233Z,30
2016-07-03T07:50:41.232Z,25
2016-07-03T07:51:41.232Z,30
2016-07-03T07:52:41.221Z,30
2016-07-03T07:53:41.279Z,30
2016-07-03T07:54:41.292Z,30
2016-07-03T07:55:41.872Z,30
2016-07-03T07:56:41.285Z,35
2016-07-03T07:57:41.301Z,35
2016-07-03T07:58:41.311Z,35
2016-07-03T07:59:41.313Z,35
2016-07-03T08:00:41.340Z,35
2016-07-03T08:01:41.347Z,40
2016-07-03T08:02:41.371Z,45
2016-07-03T08:03:41.342Z,35
2016-07-03T08:04:41.362Z,35
2016-07-03T08:05:41.358Z,35
2016-07-03T08:06:41.351Z,40
2016-07-03T08:07:41.367Z,45
2016-07-03T08:08:41.376Z,45
2016-07-03T08:09:41.403Z,45
2016-07-03T08:10:41.386Z,40
2016-07-03T08:11:41.388Z,40
2016-07-03T08:12:41.422Z,45
2016-07-03T08:13:41.410Z,40
2016-07-03T08:14:41.438Z,35
2016-07-03T08:15:41.452Z,30
2016-07-03T08:16:41.447Z,30
2016-07-03T08:17:41.479Z,30
2016-07-03T08:18:41.459Z,35
2016-07-03T08:19:41.490Z,35
2016-07-03T08:20:41.497Z,40
2016-07-03T08:21:41.529Z,40
2016-07-03T08:22:41.504Z,40
2016-07-03T08:23:41.733Z,40
2016-07-03T08:24:41.547Z,30
2016-07-03T08:25:41.533Z,30
2016-07-03T08:26:41.552Z,40
2016-07-03T08:27:41.578Z,35
2016-07-03T08:28:41.574Z,30
2016-07-03T08:29:41.612Z,35
2016-07-03T08:30:41.588Z,35
2016-07-03T08:31:41.616Z,35
2016-07-03T08:32:41.622Z,35
2016-07-03T08:33:41.615Z,35
2016-07-03T08:34:41.665Z,35
2016-07-03T08:35:41.625Z,35
2016-07-03T08:36:41.682Z,30
2016-07-03T08:37:41.670Z,35
2016-07-03T08:38:41.676Z,35
2016-07-03T08:39:41.666Z,40
2016-07-03T08:40:41.681Z,35
2016-07-03T08:41:41.705Z,30
2016-07-03T08:42:41.720Z,30
2016-07-03T08:43:41.743Z,35
2016-07-03T08:44:41.727Z,35
2016-07-03T08:45:42.356Z,35
2016-07-03T08:46:41.757Z,35
2016-07-03T08:47:41.756Z,45
2016-07-03T08:48:41.766Z,40
2016-07-03T08:49:41.754Z,40
2016-07-03T08:50:41.761Z,35
2016-07-03T08:51:42.399Z,35
2016-07-03T08:52:41.767Z,35
2016-07-03T08:53:41.828Z,35
2016-07-03T08:54:41.804Z,30
2016-07-03T08:55:41.832Z,25
2016-07-03T08:56:41.839Z,30
2016-07-03T08:57:41.812Z,30
2016-07-03T08:58:41.831Z,35
2016-07-03T08:59:41.852Z,35
2016-07-03T09:00:41.858Z,40
2016-07-03T09:01:42.486Z,45
2016-07-03T09:02:41.892Z,40
2016-07-03T09:03:42.495Z,35
2016-07-03T09:04:41.890Z,35
2016-07-03T09:05:41.885Z,40
2016-07-03T09:06:41.902Z,40
2016-07-03T09:07:41.939Z,40
2016-07-03T09:08:41.938Z,50
2016-07-03T09:09:41.913Z,50
2016-07-03T09:10:41.968Z,45
2016-07-03T09:11:41.949Z,35
2016-07-03T09:12:41.986Z,35
2016-07-03T09:13:41.963Z,30
2016-07-03T09:14:41.983Z,30
2016-07-03T09:15:42.023Z,30
2016-07-03T09:16:42.609Z,35
2016-07-03T09:17:42.647Z,35
2016-07-03T09:18:42.031Z,35
2016-07-03T09:19:42.034Z,50
2016-07-03T09:20:42.030Z,40
2016-07-03T09:21:42.071Z,45
2016-07-03T09:22:42.053Z,45
2016-07-03T09:23:42.140Z,65
2016-07-03T09:24:42.089Z,60
2016-07-03T09:25:42.089Z,55
2016-07-03T09:26:42.081Z,40
2016-07-03T09:27:42.133Z,30
2016-07-03T09:28:42.137Z,45
2016-07-03T09:29:42.095Z,25
2016-07-03T09:30:42.119Z,25
2016-07-03T09:31:42.143Z,20
2016-07-03T09:32:42.171Z,20
2016-07-03T09:33:42.181Z,20
2016-07-03T09:34:42.172Z,20
2016-07-03T09:35:42.192Z,20
2016-07-03T09:36:42.185Z,15
2016-07-03T09:37:42.230Z,20
2016-07-03T09:38:42.237Z,20
2016-07-03T09:39:42.213Z,20
2016-07-03T09:40:42.247Z,20
2016-07-03T09:41:42.866Z,20
2016-07-03T09:42:42.268Z,20
2016-07-03T09:43:42.260Z,20
2016-07-03T09:44:42.855Z,20
2016-07-03T09:45:42.277Z,20
2016-07-03T09:46:42.305Z,20
2016-07-03T09:47:42.288Z,20
2016-07-03T09:48:42.310Z,25
2016-07-03T09:49:42.334Z,20
2016-07-03T09:50:42.317Z,20
2016-07-03T09:51:42.333Z,20
2016-07-03T09:52:42.338Z,20
2016-07-03T09:53:42.333Z,20
2016-07-03T09:54:42.342Z,20
2016-07-03T09:55:42.369Z,20
2016-07-03T09:56:42.367Z,25
2016-07-03T09:57:42.382Z,30
2016-07-03T09:58:42.379Z,30
2016-07-03T09:59:42.413Z,30
2016-07-03T10:00:42.412Z,45
2016-07-03T10:01:42.426Z,35
2016-07-03T10:02:42.435Z,40
2016-07-03T10:03:42.424Z,60
2016-07-03T10:04:42.448Z,60
2016-07-03T10:05:42.482Z,40
2016-07-03T10:06:42.485Z,50
2016-07-03T10:07:42.513Z,65
2016-07-03T10:08:42.472Z,50
2016-07-03T10:09:42.485Z,45
2016-07-03T10:10:42.485Z,45
2016-07-03T10:11:42.507Z,45
2016-07-03T10:12:42.507Z,40
2016-07-03T10:13:42.505Z,50
2016-07-03T10:14:42.559Z,40
2016-07-03T10:15:43.126Z,40
2016-07-03T10:16:42.546Z,40
2016-07-03T10:17:42.592Z,40
2016-07-03T10:18:42.594Z,40
2016-07-03T10:19:42.578Z,40
2016-07-03T10:20:42.602Z,40
2016-07-03T10:21:42.594Z,45
2016-07-03T10:22:42.620Z,50
2016-07-03T10:23:42.617Z,55
2016-07-03T10:24:42.599Z,55
2016-07-03T10:25:42.634Z,85
2016-07-03T10:26:42.639Z,60
2016-07-03T10:27:42.634Z,75
2016-07-03T10:28:42.666Z,55
2016-07-03T10:29:42.685Z,50
2016-07-03T10:30:42.706Z,60
2016-07-03T10:31:42.676Z,40
2016-07-03T10:32:42.711Z,50
2016-07-03T10:33:42.715Z,45
2016-07-03T10:34:42.729Z,40
2016-07-03T10:35:42.727Z,50
2016-07-03T10:36:42.736Z,70
2016-07-03T10:37:42.782Z,70
2016-07-03T10:38:42.777Z,70
2016-07-03T10:39:42.748Z,65
2016-07-03T10:40:42.800Z,60
2016-07-03T10:41:42.780Z,65
2016-07-03T10:42:42.769Z,70
2016-07-03T10:43:42.811Z,75
2016-07-03T10:44:42.857Z,75
2016-07-03T10:45:42.806Z,70
2016-07-03T10:46:42.816Z,70
2016-07-03T10:47:42.832Z,40
2016-07-03T10:48:42.873Z,40
2016-07-03T10:49:42.850Z,45
2016-07-03T10:50:42.863Z,40
2016-07-03T10:51:42.862Z,65
2016-07-03T10:52:42.860Z,65
2016-07-03T10:53:42.897Z,65
2016-07-03T10:54:42.927Z,70
2016-07-03T10:55:43.511Z,70
2016-07-03T10:56:42.888Z,60
2016-07-03T10:57:42.933Z,60
2016-07-03T10:58:42.921Z,55
2016-07-03T10:59:42.959Z,50
2016-07-03T11:00:42.933Z,45
2016-07-03T11:01:42.971Z,40
2016-07-03T11:02:42.962Z,45
2016-07-03T11:03:42.980Z,30
2016-07-03T11:04:43.000Z,30
2016-07-03T11:05:43.023Z,25
2016-07-03T11:06:43.020Z,25
2016-07-03T11:07:43.035Z,20
2016-07-03T11:08:43.026Z,20
2016-07-03T11:09:43.055Z,20
2016-07-03T11:10:43.067Z,20
2016-07-03T11:11:43.058Z,20
2016-07-03T11:12:43.050Z,25
2016-07-03T11:13:43.069Z,30
2016-07-03T11:14:43.085Z,35
2016-07-03T11:15:43.080Z,40
2016-07-03T11:16:43.119Z,40
2016-07-03T11:17:43.166Z,35
2016-07-03T11:18:43.115Z,35
2016-07-03T11:19:43.131Z,30
2016-07-03T11:20:43.129Z,25
2016-07-03T11:21:43.192Z,25
2016-07-03T11:22:43.146Z,20
2016-07-03T11:23:43.253Z,20
2016-07-03T11:24:43.180Z,20
2016-07-03T11:25:43.162Z,15
2016-07-03T11:26:43.207Z,15
2016-07-03T11:27:43.204Z,15
2016-07-03T11:28:43.241Z,15
2016-07-03T11:29:43.212Z,15
2016-07-03T11:30:43.269Z,15
2016-07-03T11:31:43.236Z,15
2016-07-03T11:32:43.294Z,15
2016-07-03T11:33:43.254Z,10
2016-07-03T11:34:43.269Z,15
2016-07-03T11:35:43.284Z,15
2016-07-03T11:36:43.297Z,15
2016-07-03T11:37:43.917Z,15
2016-07-03T11:38:43.329Z,20
2016-07-03T11:39:43.321Z,25
2016-07-03T11:40:43.331Z,25
2016-07-03T11:41:43.362Z,30
2016-07-03T11:42:43.335Z,40
2016-07-03T11:43:43.366Z,45
2016-07-03T11:44:43.393Z,45
2016-07-03T11:45:43.411Z,55
2016-07-03T11:46:43.395Z,65
2016-07-03T11:47:43.422Z,65
2016-07-03T11:48:43.406Z,65
2016-07-03T11:49:43.442Z,80
2016-07-03T11:50:43.445Z,60
2016-07-03T11:51:43.441Z,45
2016-07-03T11:52:43.438Z,40
2016-07-03T11:53:43.447Z,35
2016-07-03T11:54:43.469Z,30
2016-07-03T11:55:44.107Z,25
2016-07-03T11:56:43.511Z,25
2016-07-03T11:57:43.497Z,20
2016-07-03T11:58:43.488Z,20
2016-07-03T11:59:43.513Z,15
2016-07-03T12:00:43.539Z,15
2016-07-03T12:01:43.567Z,15
2016-07-03T12:02:43.542Z,15
2016-07-03T12:03:43.554Z,15
2016-07-03T12:04:43.557Z,15
2016-07-03T12:05:43.576Z,15
2016-07-03T12:06:43.588Z,15
2016-07-03T12:07:43.613Z,15
2016-07-03T12:08:43.597Z,15
2016-07-03T12:09:43.603Z,10
2016-07-03T12:10:43.642Z,10
2016-07-03T12:11:43.646Z,15
2016-07-03T12:12:43.619Z,15
2016-07-03T12:13:43.643Z,15
2016-07-03T12:14:43.673Z,10
2016-07-03T12:15:43.645Z,10
2016-07-03T12:16:43.689Z,10
2016-07-03T12:17:43.698Z,10
2016-07-03T12:18:43.694Z,15
2016-07-03T12:19:44.286Z,15
2016-07-03T12:20:43.709Z,15
2016-07-03T12:21:43.709Z,15
2016-07-03T12:22:43.764Z,15
2016-07-03T12:23:43.801Z,15
2016-07-03T12:24:43.757Z,15
2016-07-03T12:25:43.734Z,20
2016-07-03T12:26:43.747Z,20
2016-07-03T12:27:43.753Z,25
2016-07-03T12:28:43.778Z,30
2016-07-03T12:29:43.818Z,35
2016-07-03T12:30:43.802Z,40
2016-07-03T12:31:43.817Z,45
2016-07-03T12:32:43.833Z,50
2016-07-03T12:33:43.827Z,45
2016-07-03T12:34:43.808Z,35
2016-07-03T12:35:43.831Z,35
2016-07-03T12:36:43.848Z,30
2016-07-03T12:37:43.868Z,30
2016-07-03T12:38:43.875Z,25
2016-07-03T12:39:43.903Z,25
2016-07-03T12:40:43.905Z,25
2016-07-03T12:41:43.877Z,25
2016-07-03T12:42:43.895Z,25
2016-07-03T12:43:43.924Z,25
2016-07-03T12:44:43.939Z,25
2016-07-03T12:45:43.927Z,25
2016-07-03T12:46:43.959Z,20
2016-07-03T12:47:43.974Z,20
2016-07-03T12:48:43.973Z,20
2016-07-03T12:49:43.974Z,20
2016-07-03T12:50:44.002Z,20
2016-07-03T12:51:43.991Z,20
2016-07-03T12:52:43.995Z,20
2016-07-03T12:53:44.013Z,20
2016-07-03T12:54:44.052Z,20
2016-07-03T12:55:44.013Z,15
2016-07-03T12:56:44.046Z,15
2016-07-03T12:57:44.054Z,15
2016-07-03T12:58:44.047Z,15
2016-07-03T12:59:44.057Z,15
2016-07-03T13:00:44.068Z,15
2016-07-03T13:01:44.073Z,15
2016-07-03T13:02:44.112Z,15
2016-07-03T13:03:44.094Z,15
2016-07-03T13:04:44.136Z,15
2016-07-03T13:05:44.714Z,15
2016-07-03T13:06:44.099Z,15
2016-07-03T13:07:44.129Z,15
2016-07-03T13:08:44.143Z,15
2016-07-03T13:09:44.162Z,20
2016-07-03T13:10:44.793Z,20
2016-07-03T13:11:44.151Z,20
2016-07-03T13:12:44.220Z,20
2016-07-03T13:13:44.197Z,20
2016-07-03T13:14:44.214Z,20
2016-07-03T13:15:44.223Z,25
2016-07-03T13:16:44.248Z,25
2016-07-03T13:17:44.840Z,30
2016-07-03T13:18:44.876Z,35
2016-07-03T13:19:44.259Z,40
2016-07-03T13:20:44.254Z,45
2016-07-03T13:21:44.296Z,50
2016-07-03T13:22:44.290Z,55
2016-07-03T13:23:44.306Z,50
2016-07-03T13:24:44.292Z,40
2016-07-03T13:25:44.302Z,30
2016-07-03T13:26:44.320Z,30
2016-07-03T13:27:44.314Z,50
2016-07-03T13:28:44.342Z,40
2016-07-03T13:29:44.336Z,35
2016-07-03T13:30:44.358Z,35
2016-07-03T13:31:44.393Z,35
2016-07-03T13:32:44.383Z,40
2016-07-03T13:33:44.380Z,40
2016-07-03T13:34:44.398Z,35
2016-07-03T13:35:44.393Z,40
2016-07-03T13:36:44.412Z,50
2016-07-03T13:37:44.428Z,40
2016-07-03T13:38:44.428Z,40
2016-07-03T13:39:44.464Z,30
2016-07-03T13:40:44.458Z,50
2016-07-03T13:41:44.490Z,30
2016-07-03T13:42:44.458Z,45
2016-07-03T13:43:44.471Z,45
2016-07-03T13:44:44.509Z,50
2016-07-03T13:45:44.522Z,45
2016-07-03T13:46:44.530Z,45
2016-07-03T13:47:44.511Z,45
2016-07-03T13:48:44.549Z,40
2016-07-03T13:49:44.560Z,40
2016-07-03T13:50:44.540Z,40
2016-07-03T13:51:44.564Z,40
2016-07-03T13:52:44.534Z,45
2016-07-03T13:53:45.183Z,45
2016-07-03T13:54:45.180Z,45
2016-07-03T13:55:44.589Z,45
2016-07-03T13:56:44.623Z,40
2016-07-03T13:57:44.616Z,40
2016-07-03T13:58:44.636Z,40
2016-07-03T13:59:44.625Z,40
2016-07-03T14:00:44.653Z,40
2016-07-03T14:01:44.661Z,40
2016-07-03T14:02:44.651Z,15
2016-07-03T14:03:44.657Z,40
2016-07-03T14:04:44.683Z,40
2016-07-03T14:05:44.691Z,35
2016-07-03T14:06:44.712Z,40
2016-07-03T14:07:44.719Z,40
2016-07-03T14:08:44.703Z,40
2016-07-03T14:09:44.705Z,40
2016-07-03T14:10:44.750Z,45
2016-07-03T14:11:44.786Z,45
2016-07-03T14:12:44.733Z,45
2016-07-03T14:13:45.343Z,45
2016-07-03T14:14:44.763Z,45
2016-07-03T14:15:44.767Z,45
2016-07-03T14:16:44.797Z,45
2016-07-03T14:17:44.819Z,45
2016-07-03T14:18:44.807Z,25
2016-07-03T14:19:44.826Z,25
2016-07-03T14:20:44.829Z,45
2016-07-03T14:21:44.846Z,40
2016-07-03T14:22:44.823Z,40
2016-07-03T14:23:44.888Z,30
2016-07-03T14:24:45.059Z,40